Pocataligo, South Carolina
Current Conditions -  °F | °C
As of 1:56 PM on Thursday 30 Oct 2014 (Local Time) from KNBC Reporting Station
Few Clouds Few Clouds  
Wind Chill: 76°   Ceiling: Unl
Heat Index: 76°   Visibility: 7mi
Dew Point: 58°   Wind: 5mph
Humidity: 54%   Direction: 340°NNW
Pressure: 29.94"   Gusts: NA
Location:  32.642°N, 80.8085°W
Report Text: KNBC 301756Z 34004KT 7SM FEW040 25/15 A2994 RMK AO2 SLP135 WND DATA ESTIMATED T02440144 58014 $
Loading
Personal Weather Stations






























Interactive Weather Map
Tropical Storm Tracking
New forecast layout! Learn more

10-Day Weather Forecast

Advertisements
Track Severe Weather on mobile